createdAt,value
2019-03-05T00:00:54.513Z,4.67
2019-03-05T00:03:31.598Z,4.58
2019-03-05T00:06:08.994Z,3.77
2019-03-05T00:08:48.060Z,3.75
2019-03-05T00:11:25.333Z,4.05
2019-03-05T00:14:02.522Z,3.77
2019-03-05T00:16:39.734Z,3.87
2019-03-05T00:19:16.682Z,4.72
2019-03-05T00:21:54.388Z,3.87
2019-03-05T00:25:04.018Z,3.87
2019-03-05T00:27:50.576Z,3.47
2019-03-05T00:30:47.125Z,3.67
2019-03-05T00:33:52.858Z,4.20
2019-03-05T00:36:48.899Z,4.03
2019-03-05T00:39:35.187Z,4.58
2019-03-05T00:42:48.255Z,3.70
2019-03-05T00:46:05.633Z,3.77
2019-03-05T00:49:21.873Z,3.80
2019-03-05T00:52:12.262Z,3.42
2019-03-05T00:55:02.363Z,4.47
2019-03-05T00:57:54.730Z,3.95
2019-03-05T01:00:48.131Z,3.80
2019-03-05T01:04:08.546Z,3.58
2019-03-05T01:06:45.613Z,3.70
2019-03-05T01:09:26.313Z,3.70
2019-03-05T01:12:03.986Z,4.15
2019-03-05T01:14:41.035Z,4.03
2019-03-05T01:17:15.583Z,4.12
2019-03-05T01:19:52.725Z,3.77
2019-03-05T01:22:29.918Z,4.17
2019-03-05T01:25:04.843Z,4.15
2019-03-05T01:27:39.507Z,4.45
2019-03-05T01:30:29.872Z,4.28
2019-03-05T01:33:10.282Z,3.72
2019-03-05T01:35:57.700Z,4.40
2019-03-05T01:38:38.516Z,4.08
2019-03-05T01:41:13.270Z,4.12
2019-03-05T01:43:50.442Z,3.90
2019-03-05T01:46:27.564Z,3.80
2019-03-05T01:49:05.024Z,3.62
2019-03-05T01:51:42.163Z,3.55
2019-03-05T01:54:19.302Z,3.95
2019-03-05T01:56:56.456Z,3.60
2019-03-05T01:59:33.507Z,3.60
2019-03-05T02:02:10.633Z,3.85
2019-03-05T02:04:47.699Z,3.77
2019-03-05T02:07:25.629Z,3.65
2019-03-05T02:10:04.421Z,6.28
2019-03-05T02:12:41.648Z,3.50
2019-03-05T02:15:20.481Z,3.85
2019-03-05T02:17:57.653Z,3.40
2019-03-05T02:20:34.818Z,3.55
2019-03-05T02:23:49.216Z,3.67
2019-03-05T02:27:08.537Z,4.12
2019-03-05T02:30:07.125Z,3.98
2019-03-05T02:33:30.737Z,4.05
2019-03-05T02:36:28.785Z,4.60
2019-03-05T02:39:42.730Z,4.03
2019-03-05T02:42:46.218Z,5.28
2019-03-05T02:45:52.976Z,4.83
2019-03-05T02:48:53.794Z,4.75
2019-03-05T02:51:40.743Z,3.98
2019-03-05T02:55:20.474Z,4.25
2019-03-05T02:57:52.611Z,4.25
2019-03-05T03:00:47.124Z,5.00
2019-03-05T03:03:47.876Z,4.47
2019-03-05T03:06:28.886Z,4.40
2019-03-05T03:09:47.181Z,4.90
2019-03-05T03:12:24.545Z,5.42
2019-03-05T03:15:04.518Z,5.37
2019-03-05T03:17:41.623Z,3.98
2019-03-05T03:20:21.626Z,4.45
2019-03-05T03:22:58.784Z,3.98
2019-03-05T03:25:35.941Z,3.95
2019-03-05T03:28:13.277Z,4.58
2019-03-05T03:30:50.398Z,3.75
2019-03-05T03:33:27.523Z,4.03
2019-03-05T03:36:04.593Z,3.90
2019-03-05T03:38:44.076Z,4.28
2019-03-05T03:41:21.534Z,4.47
2019-03-05T03:43:58.666Z,4.05
2019-03-05T03:46:35.867Z,4.10
2019-03-05T03:49:13.089Z,4.47
2019-03-05T03:51:51.370Z,3.60
2019-03-05T03:54:28.320Z,4.10
2019-03-05T03:57:05.711Z,4.15
2019-03-05T03:59:43.114Z,4.22
2019-03-05T04:02:20.299Z,4.92
2019-03-05T04:04:58.013Z,4.25
2019-03-05T04:07:35.154Z,3.80
2019-03-05T04:10:13.670Z,3.83
2019-03-05T04:12:50.799Z,4.17
2019-03-05T04:15:28.593Z,5.10
2019-03-05T04:18:03.482Z,5.00
2019-03-05T04:20:52.926Z,3.90
2019-03-05T04:23:31.533Z,3.90
2019-03-05T04:26:08.637Z,3.75
2019-03-05T04:28:43.143Z,3.00
2019-03-05T04:31:20.199Z,3.52
2019-03-05T04:33:57.928Z,3.67
2019-03-05T04:36:36.874Z,3.47
2019-03-05T04:39:17.057Z,3.25
2019-03-05T04:41:54.269Z,4.00
2019-03-05T04:44:36.464Z,3.85
2019-03-05T04:47:13.621Z,3.10
2019-03-05T04:49:56.160Z,4.20
2019-03-05T04:52:36.095Z,3.40
2019-03-05T04:55:15.912Z,3.55
2019-03-05T04:57:52.981Z,3.37
2019-03-05T05:00:30.081Z,3.85
2019-03-05T05:03:07.327Z,3.65
2019-03-05T05:05:44.581Z,3.77
2019-03-05T05:08:21.770Z,4.10
2019-03-05T05:10:58.946Z,3.75
2019-03-05T05:13:36.109Z,3.83
2019-03-05T05:16:13.223Z,3.70
2019-03-05T05:18:52.683Z,3.55
2019-03-05T05:21:29.968Z,4.30
2019-03-05T05:24:07.842Z,4.08
2019-03-05T05:26:44.939Z,3.55
2019-03-05T05:29:21.993Z,4.00
2019-03-05T05:31:59.035Z,4.28
2019-03-05T05:34:36.232Z,4.10
2019-03-05T05:37:13.315Z,3.50
2019-03-05T05:40:26.839Z,3.72
2019-03-05T05:43:04.663Z,3.75
2019-03-05T05:45:54.611Z,3.75
2019-03-05T05:48:31.755Z,3.85
2019-03-05T05:51:08.945Z,3.70
2019-03-05T05:53:46.090Z,3.95
2019-03-05T05:56:23.235Z,3.65
2019-03-05T05:59:00.292Z,3.33
2019-03-05T06:01:37.899Z,3.90
2019-03-05T06:04:16.259Z,3.52
2019-03-05T06:06:53.363Z,4.15
2019-03-05T06:09:30.422Z,3.92
2019-03-05T06:12:07.499Z,3.80
2019-03-05T06:14:45.855Z,4.08
2019-03-05T06:17:23.042Z,3.77
2019-03-05T06:20:00.313Z,4.05
2019-03-05T06:22:37.444Z,4.10
2019-03-05T06:25:15.129Z,3.65
2019-03-05T06:27:52.247Z,4.45
2019-03-05T06:30:29.750Z,3.85
2019-03-05T06:33:07.216Z,3.58
2019-03-05T06:35:44.597Z,3.98
2019-03-05T06:38:21.769Z,3.50
2019-03-05T06:40:58.887Z,3.83
2019-03-05T06:43:37.714Z,4.08
2019-03-05T06:46:14.858Z,4.00
2019-03-05T06:48:52.333Z,4.78
2019-03-05T06:51:29.571Z,4.22
2019-03-05T06:54:06.700Z,4.53
2019-03-05T06:56:43.803Z,4.05
2019-03-05T06:59:20.978Z,4.20
2019-03-05T07:01:58.135Z,3.98
2019-03-05T07:04:35.551Z,4.08
2019-03-05T07:07:12.832Z,3.90
2019-03-05T07:10:10.097Z,5.20
2019-03-05T07:13:11.107Z,3.58
2019-03-05T07:16:20.272Z,3.95
2019-03-05T07:19:19.569Z,3.85
2019-03-05T07:22:04.559Z,4.15
2019-03-05T07:24:49.599Z,4.25
2019-03-05T07:27:28.773Z,4.40
2019-03-05T07:30:09.281Z,4.80
2019-03-05T07:32:44.197Z,5.08
2019-03-05T07:35:20.566Z,4.12
2019-03-05T07:37:57.847Z,4.55
2019-03-05T07:40:35.473Z,4.00
2019-03-05T07:43:12.604Z,4.00
2019-03-05T07:45:49.904Z,4.25
2019-03-05T07:48:29.671Z,4.53
2019-03-05T07:51:04.111Z,4.62
2019-03-05T07:53:38.713Z,4.50
2019-03-05T07:56:16.009Z,4.85
2019-03-05T07:58:53.186Z,4.90
2019-03-05T08:01:32.623Z,5.00
2019-03-05T08:04:07.269Z,4.87
2019-03-05T08:06:42.098Z,4.67
2019-03-05T08:09:38.990Z,4.22
2019-03-05T08:12:24.587Z,5.42
2019-03-05T08:15:21.162Z,5.42
2019-03-05T08:17:58.247Z,10.23
2019-03-05T08:20:34.427Z,8.00
2019-03-05T08:23:11.951Z,6.75
2019-03-05T08:25:49.565Z,6.08
2019-03-05T08:28:26.793Z,6.03
2019-03-05T08:31:01.664Z,6.17
2019-03-05T08:33:40.114Z,4.80
2019-03-05T08:36:17.402Z,5.30
2019-03-05T08:38:54.779Z,4.78
2019-03-05T08:41:32.029Z,4.47
2019-03-05T08:44:09.529Z,5.42
2019-03-05T08:46:48.321Z,3.87
2019-03-05T08:49:26.964Z,4.95
2019-03-05T08:52:05.276Z,4.50
2019-03-05T08:54:42.361Z,5.50
2019-03-05T08:57:19.439Z,4.50
2019-03-05T08:59:56.669Z,4.45
2019-03-05T09:02:47.708Z,4.78
2019-03-05T09:05:17.045Z,5.70
2019-03-05T09:07:54.633Z,8.35
2019-03-05T09:10:32.567Z,6.72
2019-03-05T09:13:10.216Z,13.13
2019-03-05T09:15:48.682Z,10.43
2019-03-05T09:18:25.713Z,4.78
2019-03-05T09:21:02.739Z,7.20
2019-03-05T09:23:39.910Z,4.35
2019-03-05T09:26:17.381Z,4.75
2019-03-05T09:28:54.802Z,5.37
2019-03-05T09:31:31.944Z,4.87
2019-03-05T09:34:09.338Z,4.95
2019-03-05T09:36:50.732Z,5.03
2019-03-05T09:39:25.707Z,4.60
2019-03-05T09:42:03.302Z,5.60
2019-03-05T09:44:43.454Z,4.80
2019-03-05T09:47:21.561Z,5.17
2019-03-05T09:49:59.262Z,4.35
2019-03-05T09:52:39.639Z,4.87
2019-03-05T09:55:18.936Z,5.00
2019-03-05T09:58:07.527Z,5.10
2019-03-05T10:00:38.013Z,4.97
2019-03-05T10:03:19.770Z,5.17
2019-03-05T10:05:57.364Z,5.40
2019-03-05T10:08:34.643Z,4.72
2019-03-05T10:11:12.748Z,4.53
2019-03-05T10:13:50.014Z,4.87
2019-03-05T10:16:27.441Z,3.98
2019-03-05T10:19:07.020Z,4.75
2019-03-05T10:21:46.648Z,4.85
2019-03-05T10:24:24.069Z,4.50
2019-03-05T10:27:01.462Z,4.72
2019-03-05T10:29:38.876Z,4.67
2019-03-05T10:32:17.082Z,4.53
2019-03-05T10:34:54.917Z,5.35
2019-03-05T10:37:33.469Z,5.00
2019-03-05T10:40:10.856Z,4.62
2019-03-05T10:42:48.393Z,4.85
2019-03-05T10:45:25.877Z,4.65
2019-03-05T10:48:03.111Z,4.97
2019-03-05T10:50:40.601Z,4.60
2019-03-05T10:53:18.244Z,4.40
2019-03-05T10:55:56.229Z,4.53
2019-03-05T10:58:34.667Z,4.15
2019-03-05T11:01:13.115Z,4.85
2019-03-05T11:03:50.644Z,4.75
2019-03-05T11:06:27.842Z,4.67
2019-03-05T11:09:06.303Z,4.87
2019-03-05T11:11:43.705Z,4.70
2019-03-05T11:14:21.210Z,4.78
2019-03-05T11:16:58.694Z,4.58
2019-03-05T11:19:35.950Z,4.92
2019-03-05T11:22:13.404Z,4.90
2019-03-05T11:24:50.481Z,5.47
2019-03-05T11:27:27.754Z,4.97
2019-03-05T11:30:05.023Z,4.70
2019-03-05T11:32:42.133Z,4.92
2019-03-05T11:35:20.884Z,5.08
2019-03-05T11:37:58.494Z,5.10
2019-03-05T11:40:36.524Z,5.17
2019-03-05T11:43:17.048Z,5.40
2019-03-05T11:45:54.171Z,4.87
2019-03-05T11:48:31.809Z,5.47
2019-03-05T11:51:09.278Z,5.28
2019-03-05T11:53:46.494Z,5.20
2019-03-05T11:56:23.737Z,4.30
2019-03-05T11:59:00.970Z,4.78
2019-03-05T12:01:41.795Z,5.30
2019-03-05T12:04:18.894Z,4.60
2019-03-05T12:06:56.621Z,4.47
2019-03-05T12:09:33.903Z,4.78
2019-03-05T12:12:11.178Z,4.53
2019-03-05T12:14:48.418Z,4.75
2019-03-05T12:17:25.567Z,4.87
2019-03-05T12:20:02.949Z,4.78
2019-03-05T12:22:40.063Z,4.78
2019-03-05T12:25:19.385Z,5.25
2019-03-05T12:27:57.211Z,5.90
2019-03-05T12:30:34.755Z,6.15
2019-03-05T12:33:12.054Z,5.53
2019-03-05T12:35:49.344Z,5.58
2019-03-05T12:38:26.646Z,6.12
2019-03-05T12:41:04.266Z,5.83
2019-03-05T12:43:41.496Z,6.42
2019-03-05T12:46:18.708Z,5.75
2019-03-05T12:48:56.181Z,5.80
2019-03-05T12:51:36.236Z,5.90
2019-03-05T12:54:13.415Z,6.12
2019-03-05T12:56:50.506Z,6.20
2019-03-05T12:59:27.898Z,6.60
2019-03-05T13:02:04.950Z,5.65
2019-03-05T13:04:42.141Z,6.22
2019-03-05T13:07:19.299Z,5.72
2019-03-05T13:09:56.948Z,6.65
2019-03-05T13:12:36.046Z,6.17
2019-03-05T13:15:14.006Z,5.97
2019-03-05T13:17:51.626Z,6.08
2019-03-05T13:20:29.594Z,5.75
2019-03-05T13:23:09.454Z,5.87
2019-03-05T13:25:46.419Z,5.37
2019-03-05T13:28:23.492Z,6.15
2019-03-05T13:31:04.988Z,5.70
2019-03-05T13:33:41.835Z,5.60
2019-03-05T13:36:17.753Z,5.70
2019-03-05T13:38:54.784Z,6.22
2019-03-05T13:41:32.222Z,5.95
2019-03-05T13:44:09.327Z,5.12
2019-03-05T13:46:46.755Z,5.60
2019-03-05T13:49:59.848Z,4.67
2019-03-05T13:53:14.822Z,5.12
2019-03-05T13:56:28.238Z,5.45
2019-03-05T13:59:21.614Z,5.22
2019-03-05T14:01:58.669Z,4.95
2019-03-05T14:04:41.069Z,5.00
2019-03-05T14:08:07.058Z,5.95
2019-03-05T14:10:47.206Z,4.58
2019-03-05T14:13:24.298Z,5.87
2019-03-05T14:16:02.591Z,5.72
2019-03-05T14:18:39.695Z,5.35
2019-03-05T14:21:17.142Z,5.03
2019-03-05T14:23:54.511Z,4.75
2019-03-05T14:26:31.866Z,5.33
2019-03-05T14:29:09.136Z,5.85
2019-03-05T14:31:46.579Z,4.87
2019-03-05T14:34:23.850Z,5.25
2019-03-05T14:37:01.848Z,5.45
2019-03-05T14:39:40.095Z,4.87
2019-03-05T14:42:17.728Z,5.12
2019-03-05T14:44:54.879Z,5.30
2019-03-05T14:47:32.360Z,5.35
2019-03-05T14:50:09.633Z,5.08
2019-03-05T14:52:47.147Z,5.67
2019-03-05T14:55:24.320Z,5.15
2019-03-05T14:58:01.686Z,5.03
2019-03-05T15:00:38.770Z,5.87
2019-03-05T15:03:16.107Z,4.78
2019-03-05T15:05:53.258Z,5.20
2019-03-05T15:08:30.718Z,4.90
2019-03-05T15:11:07.940Z,5.15
2019-03-05T15:13:45.365Z,5.37
2019-03-05T15:16:24.015Z,4.70
2019-03-05T15:19:01.268Z,4.60
2019-03-05T15:21:38.413Z,4.72
2019-03-05T15:24:15.692Z,4.80
2019-03-05T15:26:52.738Z,4.60
2019-03-05T15:29:29.891Z,4.47
2019-03-05T15:32:07.067Z,4.35
2019-03-05T15:34:44.282Z,4.80
2019-03-05T15:37:21.485Z,4.45
2019-03-05T15:39:58.651Z,5.03
2019-03-05T15:42:35.733Z,5.03
2019-03-05T15:45:14.105Z,4.03
2019-03-05T15:47:51.357Z,4.35
2019-03-05T15:50:28.875Z,4.33
2019-03-05T15:53:13.439Z,4.00
2019-03-05T15:55:51.166Z,4.83
2019-03-05T15:58:28.231Z,4.10
2019-03-05T16:01:05.683Z,4.05
2019-03-05T16:03:43.393Z,3.90
2019-03-05T16:06:21.067Z,4.30
2019-03-05T16:09:01.715Z,4.08
2019-03-05T16:11:36.467Z,3.80
2019-03-05T16:14:11.139Z,4.35
2019-03-05T16:16:51.691Z,4.60
2019-03-05T16:19:26.775Z,4.20
2019-03-05T16:22:03.898Z,3.65
2019-03-05T16:24:38.946Z,4.08
2019-03-05T16:27:16.415Z,3.83
2019-03-05T16:29:55.708Z,3.90
2019-03-05T16:32:43.995Z,3.95
2019-03-05T16:35:38.514Z,4.03
2019-03-05T16:38:33.599Z,4.72
2019-03-05T16:41:20.588Z,3.80
2019-03-05T16:44:07.354Z,4.10
2019-03-05T16:47:04.692Z,3.95
2019-03-05T16:50:05.654Z,4.40
2019-03-05T16:52:58.501Z,4.25
2019-03-05T16:55:53.486Z,4.40
2019-03-05T16:58:44.843Z,4.12
2019-03-05T17:01:37.259Z,4.35
2019-03-05T17:04:30.528Z,4.47
2019-03-05T17:07:23.587Z,4.55
2019-03-05T17:10:30.028Z,3.92
2019-03-05T17:13:07.341Z,4.25
2019-03-05T17:15:45.051Z,4.10
2019-03-05T17:18:22.245Z,4.67
2019-03-05T17:20:59.891Z,4.65
2019-03-05T17:23:37.066Z,3.85
2019-03-05T17:28:46.142Z,4.15
2019-03-05T17:31:23.290Z,4.30
2019-03-05T17:33:57.953Z,4.50
2019-03-05T17:36:33.870Z,4.05
2019-03-05T17:39:09.635Z,3.87
2019-03-05T17:41:47.881Z,5.05
2019-03-05T17:44:25.401Z,7.92
2019-03-05T17:47:02.578Z,5.22
2019-03-05T17:49:40.018Z,4.90
2019-03-05T17:52:18.491Z,4.90
2019-03-05T17:54:55.764Z,4.22
2019-03-05T17:57:32.851Z,4.45
2019-03-05T18:00:10.559Z,4.92
2019-03-05T18:06:07.765Z,4.47
2019-03-05T18:08:42.521Z,4.35
2019-03-05T18:11:17.315Z,4.15
2019-03-05T18:13:52.460Z,4.33
2019-03-05T18:16:27.268Z,4.70
2019-03-05T18:19:02.119Z,3.40
2019-03-05T18:21:36.943Z,4.10
2019-03-05T18:24:11.606Z,4.70
2019-03-05T18:26:46.258Z,4.22
2019-03-05T18:29:20.948Z,5.37
2019-03-05T18:31:55.873Z,4.30
2019-03-05T18:34:34.943Z,4.17
2019-03-05T18:37:09.891Z,4.75
2019-03-05T18:39:44.663Z,5.20
2019-03-05T18:42:19.513Z,6.35
2019-03-05T18:44:54.372Z,5.30
2019-03-05T18:47:29.111Z,5.20
2019-03-05T18:50:04.663Z,5.15
2019-03-05T18:52:42.233Z,4.87
2019-03-05T18:55:18.689Z,4.80
2019-03-05T18:57:53.716Z,4.67
2019-03-05T19:00:28.916Z,4.62
2019-03-05T19:03:03.808Z,5.20
2019-03-05T19:05:39.217Z,5.37
2019-03-05T19:08:13.922Z,5.40
2019-03-05T19:10:48.706Z,5.62
2019-03-05T19:13:24.516Z,4.97
2019-03-05T19:15:59.324Z,5.15
2019-03-05T19:18:34.125Z,5.58
2019-03-05T19:21:08.935Z,4.90
2019-03-05T19:23:43.962Z,5.00
2019-03-05T19:26:19.336Z,5.50
2019-03-05T19:28:55.512Z,5.50
2019-03-05T19:31:30.367Z,6.05
2019-03-05T19:34:05.578Z,5.80
2019-03-05T19:36:42.811Z,6.15
2019-03-05T19:39:20.135Z,7.10
2019-03-05T19:41:56.313Z,6.28
2019-03-05T19:44:30.596Z,6.10
2019-03-05T19:47:05.311Z,6.15
2019-03-05T19:49:40.173Z,7.62
2019-03-05T19:52:15.962Z,8.10
2019-03-05T19:54:50.846Z,6.90
2019-03-05T19:57:27.527Z,6.85
2019-03-05T20:00:02.377Z,5.87
2019-03-05T20:02:37.472Z,5.62
2019-03-05T20:05:15.194Z,5.72
2019-03-05T20:07:52.480Z,5.87
2019-03-05T20:10:28.951Z,6.20
2019-03-05T20:13:05.528Z,7.05
2019-03-05T20:15:45.901Z,6.28
2019-03-05T20:18:23.311Z,5.78
2019-03-05T20:20:58.073Z,5.58
2019-03-05T20:23:35.285Z,6.08
2019-03-05T20:26:10.093Z,5.72
2019-03-05T20:28:44.917Z,5.70
2019-03-05T20:31:23.151Z,5.37
2019-03-05T20:34:00.312Z,5.00
2019-03-05T20:36:38.104Z,4.90
2019-03-05T20:39:14.174Z,4.20
2019-03-05T20:41:49.041Z,4.25
2019-03-05T20:44:24.161Z,4.37
2019-03-05T20:47:02.110Z,4.85
2019-03-05T20:49:36.931Z,4.37
2019-03-05T20:52:11.778Z,4.62
2019-03-05T20:54:46.602Z,5.65
2019-03-05T20:57:24.354Z,4.47
2019-03-05T21:00:01.883Z,4.58
2019-03-05T21:02:39.471Z,4.97
2019-03-05T21:05:17.698Z,4.50
2019-03-05T21:07:55.267Z,4.65
2019-03-05T21:10:32.705Z,4.55
2019-03-05T21:13:13.446Z,4.70
2019-03-05T21:15:50.715Z,4.85
2019-03-05T21:18:30.738Z,4.72
2019-03-05T21:21:08.438Z,4.72
2019-03-05T21:23:47.756Z,6.45
2019-03-05T21:26:27.093Z,5.17
2019-03-05T21:29:02.557Z,4.35
2019-03-05T21:31:37.543Z,5.17
2019-03-05T21:34:12.743Z,4.47
2019-03-05T21:36:47.478Z,4.80
2019-03-05T21:39:26.045Z,4.97
2019-03-05T21:42:03.308Z,5.05
2019-03-05T21:44:40.570Z,4.80
2019-03-05T21:47:17.777Z,4.90
2019-03-05T21:49:55.345Z,5.22
2019-03-05T21:52:30.087Z,4.80
2019-03-05T21:55:07.370Z,4.80
2019-03-05T21:57:44.660Z,4.75
2019-03-05T22:00:24.791Z,4.95
2019-03-05T22:03:02.725Z,4.72
2019-03-05T22:05:40.182Z,4.92
2019-03-05T22:08:17.513Z,5.62
2019-03-05T22:10:54.731Z,5.12
2019-03-05T22:13:32.152Z,4.72
2019-03-05T22:16:09.575Z,4.40
2019-03-05T22:18:51.621Z,5.17
2019-03-05T22:21:29.130Z,4.90
2019-03-05T22:24:07.342Z,4.53
2019-03-05T22:26:44.697Z,5.10
2019-03-05T22:29:19.534Z,5.47
2019-03-05T22:31:54.367Z,4.45
2019-03-05T22:34:29.118Z,5.60
2019-03-05T22:37:06.588Z,5.92
2019-03-05T22:39:43.776Z,4.65
2019-03-05T22:42:18.543Z,5.12
2019-03-05T22:44:53.407Z,6.10
2019-03-05T22:47:28.552Z,4.70
2019-03-05T22:50:05.922Z,4.65
2019-03-05T22:52:40.753Z,4.75
2019-03-05T22:55:15.592Z,4.70
2019-03-05T22:57:50.569Z,4.67
2019-03-05T23:00:47.423Z,4.45
2019-03-05T23:03:25.962Z,4.58
2019-03-05T23:06:00.804Z,4.33
2019-03-05T23:08:35.898Z,4.53
2019-03-05T23:11:10.797Z,5.40
2019-03-05T23:13:45.801Z,4.42
2019-03-05T23:16:20.647Z,4.90
2019-03-05T23:18:58.175Z,5.28
2019-03-05T23:21:35.520Z,4.80
2019-03-05T23:24:12.836Z,4.60
2019-03-05T23:26:50.068Z,5.12
2019-03-05T23:29:35.741Z,4.72
2019-03-05T23:32:10.613Z,4.10
2019-03-05T23:34:45.289Z,4.30
2019-03-05T23:37:19.935Z,4.22
2019-03-05T23:39:54.625Z,5.30
2019-03-05T23:42:32.096Z,4.30
2019-03-05T23:45:09.563Z,4.35
2019-03-05T23:47:46.881Z,4.55
2019-03-05T23:50:21.810Z,4.33
2019-03-05T23:52:59.068Z,4.17
2019-03-05T23:55:38.020Z,4.17
2019-03-05T23:58:12.705Z,4.08
